Fall Creek, Illinois
Current Conditions -  °F | °C
As of 9:55 PM on Saturday 24 Jan 2015 (Local Time) from KHAE Reporting Station
Scattered Clouds Scattered Clouds  
Wind Chill: 42°   Ceiling: Unl
Heat Index: 46°   Visibility: 10mi
Dew Point: 30°   Wind: 8mph
Humidity: 53%   Direction: 210°SSW
Pressure: 29.66"   Gusts: NA
Location:  39.806°N, 91.2945°W
Report Text: KHAE 250355Z AUTO 21007KT 10SM SCT120 08/M01 A2966 RMK AO2
Loading
Personal Weather Stations






























Interactive Weather Map New forecast layout! Learn more

10-Day Weather Forecast

Advertisements
Track Severe Weather on mobile